SHT22D EGLL-EGJB
Flight info
| Callsign | SHT22D |
|---|---|
| Flight time | 0h 35m |
| Altitude | 18000 |
| Route | GASGU N866 SAM N63 LELNA |
| Aircraft | A319/M-SDE3FGHIRWY/LB1 |
Departure
| Time | 2026-04-21 11:08 |
|---|---|
| Airport | London Heathrow Airport (EGLL) |
Arrival
| Time | 2026-04-21 11:43 |
|---|---|
| Airport | Guernsey Airport (EGJB) |
| Time | Latitude | Longitude | Altitude | Speed | Heading |
|---|---|---|---|---|---|
| 2026-04-21 10:45 | 51.47398 | -0.48757 | 89 ft | 0 kts | 180° |
| 2026-04-21 11:00 | 51.47403 | -0.48757 | 86 ft | 3 kts | 180° |
| 2026-04-21 11:00 | 51.47430 | -0.48758 | 86 ft | 4 kts | 180° |
| 2026-04-21 11:00 | 51.47453 | -0.48758 | 86 ft | 2 kts | 180° |
| 2026-04-21 11:00 | 51.47476 | -0.48763 | 88 ft | 4 kts | 142° |
| 2026-04-21 11:01 | 51.47486 | -0.48793 | 87 ft | 3 kts | 90° |
| 2026-04-21 11:01 | 51.47486 | -0.48819 | 87 ft | 0 kts | 90° |
| 2026-04-21 11:04 | 51.47486 | -0.48790 | 87 ft | 6 kts | 89° |
| 2026-04-21 11:04 | 51.47487 | -0.48686 | 87 ft | 14 kts | 90° |
| 2026-04-21 11:04 | 51.47486 | -0.48498 | 89 ft | 20 kts | 90° |
| 2026-04-21 11:04 | 51.47448 | -0.48351 | 88 ft | 13 kts | 184° |
| 2026-04-21 11:05 | 51.47341 | -0.48358 | 87 ft | 18 kts | 180° |
| 2026-04-21 11:05 | 51.47209 | -0.48357 | 86 ft | 21 kts | 179° |
| 2026-04-21 11:05 | 51.47056 | -0.48356 | 88 ft | 18 kts | 180° |
| 2026-04-21 11:05 | 51.46918 | -0.48355 | 87 ft | 21 kts | 179° |
| 2026-04-21 11:06 | 51.46796 | -0.48354 | 86 ft | 13 kts | 180° |
| 2026-04-21 11:06 | 51.46737 | -0.48429 | 86 ft | 12 kts | 252° |
| 2026-04-21 11:06 | 51.46659 | -0.48470 | 86 ft | 14 kts | 179° |
| 2026-04-21 11:06 | 51.46551 | -0.48461 | 88 ft | 17 kts | 176° |
| 2026-04-21 11:07 | 51.46484 | -0.48449 | 87 ft | 7 kts | 143° |
| 2026-04-21 11:07 | 51.46479 | -0.48293 | 88 ft | 27 kts | 90° |
| 2026-04-21 11:07 | 51.46482 | -0.47644 | 86 ft | 89 kts | 89° |
| 2026-04-21 11:07 | 51.46487 | -0.46337 | 91 ft | 144 kts | 89° |
| 2026-04-21 11:08 | 51.46482 | -0.44659 | 684 ft | 147 kts | 91° |
| 2026-04-21 11:08 | 51.46489 | -0.43021 | 1498 ft | 150 kts | 85° |
| 2026-04-21 11:08 | 51.46332 | -0.41244 | 1976 ft | 179 kts | 110° |
| 2026-04-21 11:08 | 51.45533 | -0.39486 | 2403 ft | 209 kts | 122° |
| 2026-04-21 11:09 | 51.44632 | -0.37480 | 2972 ft | 234 kts | 121° |
| 2026-04-21 11:09 | 51.43660 | -0.35278 | 3886 ft | 248 kts | 126° |
| 2026-04-21 11:09 | 51.42292 | -0.33516 | 5056 ft | 258 kts | 149° |
| 2026-04-21 11:09 | 51.40535 | -0.32782 | 6247 ft | 268 kts | 173° |
| 2026-04-21 11:10 | 51.39294 | -0.32993 | 6989 ft | 277 kts | 190° |
| 2026-04-21 11:10 | 51.37058 | -0.35146 | 8350 ft | 293 kts | 219° |
| 2026-04-21 11:10 | 51.36040 | -0.36635 | 9049 ft | 295 kts | 219° |
| 2026-04-21 11:10 | 51.34520 | -0.38870 | 10068 ft | 299 kts | 219° |
| 2026-04-21 11:11 | 51.32928 | -0.41097 | 10720 ft | 314 kts | 214° |
| 2026-04-21 11:11 | 51.30899 | -0.42534 | 11012 ft | 328 kts | 185° |
| 2026-04-21 11:11 | 51.28622 | -0.42839 | 11861 ft | 331 kts | 192° |
| 2026-04-21 11:11 | 51.26535 | -0.44573 | 12534 ft | 350 kts | 216° |
| 2026-04-21 11:12 | 51.24862 | -0.47455 | 13265 ft | 360 kts | 236° |
| 2026-04-21 11:12 | 51.23629 | -0.50954 | 14113 ft | 364 kts | 241° |
| 2026-04-21 11:12 | 51.22424 | -0.54532 | 14848 ft | 367 kts | 243° |
| 2026-04-21 11:12 | 51.21238 | -0.58105 | 15576 ft | 370 kts | 243° |
| 2026-04-21 11:13 | 51.20038 | -0.61742 | 16376 ft | 371 kts | 244° |
| 2026-04-21 11:13 | 51.18832 | -0.65398 | 17149 ft | 374 kts | 244° |
| 2026-04-21 11:13 | 51.17613 | -0.69071 | 17904 ft | 377 kts | 245° |
| 2026-04-21 11:13 | 51.16383 | -0.72767 | 18223 ft | 377 kts | 245° |
| 2026-04-21 11:14 | 51.15148 | -0.76462 | 18300 ft | 380 kts | 245° |
| 2026-04-21 11:14 | 51.13901 | -0.80188 | 18298 ft | 382 kts | 245° |
| 2026-04-21 11:14 | 51.12650 | -0.83923 | 18303 ft | 382 kts | 244° |
| 2026-04-21 11:14 | 51.11395 | -0.87661 | 18301 ft | 382 kts | 244° |
| 2026-04-21 11:15 | 51.10137 | -0.91390 | 18296 ft | 382 kts | 244° |
| 2026-04-21 11:15 | 51.08880 | -0.95118 | 18283 ft | 382 kts | 245° |
| 2026-04-21 11:15 | 51.07631 | -0.98836 | 18297 ft | 380 kts | 245° |
| 2026-04-21 11:15 | 51.06385 | -1.02544 | 18300 ft | 379 kts | 245° |
| 2026-04-21 11:16 | 51.05139 | -1.06238 | 18296 ft | 379 kts | 245° |
| 2026-04-21 11:16 | 51.03892 | -1.09928 | 18299 ft | 379 kts | 245° |
| 2026-04-21 11:16 | 51.02640 | -1.13621 | 18305 ft | 380 kts | 245° |
| 2026-04-21 11:16 | 51.01385 | -1.17310 | 18309 ft | 380 kts | 245° |
| 2026-04-21 11:17 | 51.00126 | -1.21007 | 18308 ft | 380 kts | 245° |
| 2026-04-21 11:17 | 50.98869 | -1.24693 | 18310 ft | 380 kts | 245° |
| 2026-04-21 11:17 | 50.97609 | -1.28379 | 18314 ft | 380 kts | 244° |
| 2026-04-21 11:17 | 50.96152 | -1.31888 | 18314 ft | 384 kts | 234° |
| 2026-04-21 11:18 | 50.94297 | -1.34875 | 18314 ft | 388 kts | 222° |
| 2026-04-21 11:18 | 50.92026 | -1.37309 | 18313 ft | 391 kts | 210° |
| 2026-04-21 11:18 | 50.89624 | -1.39226 | 18312 ft | 391 kts | 209° |
| 2026-04-21 11:18 | 50.87187 | -1.41163 | 18298 ft | 392 kts | 209° |
| 2026-04-21 11:19 | 50.84752 | -1.43099 | 18303 ft | 391 kts | 209° |
| 2026-04-21 11:19 | 50.82317 | -1.45038 | 18309 ft | 391 kts | 209° |
| 2026-04-21 11:19 | 50.79888 | -1.46972 | 18308 ft | 391 kts | 210° |
| 2026-04-21 11:19 | 50.77457 | -1.48906 | 18308 ft | 390 kts | 209° |
| 2026-04-21 11:20 | 50.75030 | -1.50835 | 18302 ft | 390 kts | 209° |
| 2026-04-21 11:20 | 50.72612 | -1.52752 | 18304 ft | 390 kts | 209° |
| 2026-04-21 11:20 | 50.70185 | -1.54676 | 18306 ft | 390 kts | 209° |
| 2026-04-21 11:20 | 50.67760 | -1.56595 | 18304 ft | 390 kts | 209° |
| 2026-04-21 11:21 | 50.65335 | -1.58512 | 18308 ft | 390 kts | 209° |
| 2026-04-21 11:21 | 50.62911 | -1.60426 | 18296 ft | 390 kts | 210° |
| 2026-04-21 11:21 | 50.60488 | -1.62339 | 18281 ft | 390 kts | 210° |
| 2026-04-21 11:21 | 50.58060 | -1.64250 | 18282 ft | 390 kts | 210° |
| 2026-04-21 11:22 | 50.55637 | -1.66152 | 18280 ft | 390 kts | 210° |
| 2026-04-21 11:22 | 50.53213 | -1.68054 | 18281 ft | 389 kts | 210° |
| 2026-04-21 11:22 | 50.50789 | -1.69953 | 18283 ft | 389 kts | 210° |
| 2026-04-21 11:22 | 50.48362 | -1.71851 | 18280 ft | 389 kts | 210° |
| 2026-04-21 11:23 | 50.45939 | -1.73746 | 18282 ft | 389 kts | 210° |
| 2026-04-21 11:23 | 50.43515 | -1.75648 | 18281 ft | 389 kts | 210° |
| 2026-04-21 11:23 | 50.41098 | -1.77546 | 18282 ft | 389 kts | 210° |
| 2026-04-21 11:23 | 50.38672 | -1.79442 | 18269 ft | 389 kts | 210° |
| 2026-04-21 11:24 | 50.36247 | -1.81331 | 18267 ft | 389 kts | 210° |
| 2026-04-21 11:24 | 50.33824 | -1.83215 | 18268 ft | 389 kts | 210° |
| 2026-04-21 11:24 | 50.31400 | -1.85097 | 18261 ft | 389 kts | 210° |
| 2026-04-21 11:24 | 50.28972 | -1.86979 | 18266 ft | 389 kts | 210° |
| 2026-04-21 11:25 | 50.26547 | -1.88859 | 18267 ft | 389 kts | 210° |
| 2026-04-21 11:25 | 50.24123 | -1.90737 | 18271 ft | 389 kts | 210° |
| 2026-04-21 11:25 | 50.21728 | -1.92589 | 18277 ft | 389 kts | 210° |
| 2026-04-21 11:25 | 50.19270 | -1.94487 | 18275 ft | 389 kts | 210° |
| 2026-04-21 11:26 | 50.16876 | -1.96338 | 18262 ft | 389 kts | 210° |
| 2026-04-21 11:26 | 50.14447 | -1.98212 | 18270 ft | 389 kts | 210° |
| 2026-04-21 11:26 | 50.12018 | -2.00082 | 18259 ft | 389 kts | 210° |
| 2026-04-21 11:26 | 50.09585 | -2.01951 | 18259 ft | 389 kts | 210° |
| 2026-04-21 11:27 | 50.07158 | -2.03813 | 18262 ft | 389 kts | 210° |
| 2026-04-21 11:27 | 50.04730 | -2.05673 | 18261 ft | 389 kts | 210° |
| 2026-04-21 11:27 | 50.02305 | -2.07534 | 18253 ft | 389 kts | 210° |
| 2026-04-21 11:27 | 49.99907 | -2.09438 | 18149 ft | 381 kts | 214° |
| 2026-04-21 11:28 | 49.97791 | -2.11772 | 17885 ft | 366 kts | 225° |
| 2026-04-21 11:28 | 49.96023 | -2.14543 | 17619 ft | 358 kts | 233° |
| 2026-04-21 11:28 | 49.94373 | -2.17434 | 17336 ft | 357 kts | 232° |
| 2026-04-21 11:28 | 49.92730 | -2.20301 | 17071 ft | 355 kts | 232° |
| 2026-04-21 11:29 | 49.91094 | -2.23156 | 16794 ft | 353 kts | 232° |
| 2026-04-21 11:29 | 49.89466 | -2.26000 | 16509 ft | 351 kts | 232° |
| 2026-04-21 11:29 | 49.87835 | -2.28852 | 15607 ft | 358 kts | 231° |
| 2026-04-21 11:29 | 49.86168 | -2.31763 | 14757 ft | 361 kts | 231° |
| 2026-04-21 11:30 | 49.84500 | -2.34668 | 13913 ft | 361 kts | 231° |
| 2026-04-21 11:30 | 49.82834 | -2.37561 | 13023 ft | 358 kts | 230° |
| 2026-04-21 11:30 | 49.81179 | -2.40431 | 12196 ft | 355 kts | 229° |
| 2026-04-21 11:30 | 49.79548 | -2.43259 | 11238 ft | 351 kts | 229° |
| 2026-04-21 11:31 | 49.77937 | -2.46048 | 10592 ft | 340 kts | 228° |
| 2026-04-21 11:31 | 49.76401 | -2.48700 | 10334 ft | 323 kts | 228° |
| 2026-04-21 11:31 | 49.74933 | -2.51234 | 10208 ft | 310 kts | 227° |
| 2026-04-21 11:31 | 49.73520 | -2.53674 | 10036 ft | 300 kts | 227° |
| 2026-04-21 11:32 | 49.72135 | -2.56064 | 9771 ft | 297 kts | 227° |
| 2026-04-21 11:32 | 49.70739 | -2.58474 | 9290 ft | 303 kts | 227° |
| 2026-04-21 11:32 | 49.69355 | -2.60890 | 8770 ft | 305 kts | 227° |
| 2026-04-21 11:32 | 49.67947 | -2.63358 | 8240 ft | 307 kts | 227° |
| 2026-04-21 11:33 | 49.66552 | -2.65843 | 7723 ft | 304 kts | 227° |
| 2026-04-21 11:33 | 49.65186 | -2.68318 | 7224 ft | 301 kts | 228° |
| 2026-04-21 11:33 | 49.63848 | -2.70764 | 6738 ft | 296 kts | 227° |
| 2026-04-21 11:33 | 49.62563 | -2.73225 | 6223 ft | 293 kts | 235° |
| 2026-04-21 11:34 | 49.61870 | -2.76152 | 5801 ft | 291 kts | 263° |
| 2026-04-21 11:34 | 49.61793 | -2.79218 | 5485 ft | 282 kts | 270° |
| 2026-04-21 11:34 | 49.61801 | -2.82199 | 5215 ft | 274 kts | 270° |
| 2026-04-21 11:34 | 49.61691 | -2.85044 | 5042 ft | 257 kts | 252° |
| 2026-04-21 11:35 | 49.60869 | -2.87281 | 5028 ft | 231 kts | 217° |
| 2026-04-21 11:35 | 49.59517 | -2.88406 | 4942 ft | 217 kts | 187° |
| 2026-04-21 11:35 | 49.58045 | -2.88830 | 4774 ft | 214 kts | 181° |
| 2026-04-21 11:35 | 49.56571 | -2.89133 | 4579 ft | 213 kts | 180° |
| 2026-04-21 11:36 | 49.55101 | -2.89434 | 4392 ft | 212 kts | 180° |
| 2026-04-21 11:36 | 49.53669 | -2.89765 | 4204 ft | 204 kts | 181° |
| 2026-04-21 11:36 | 49.52291 | -2.90092 | 4020 ft | 197 kts | 180° |
| 2026-04-21 11:36 | 49.50958 | -2.90436 | 3927 ft | 192 kts | 180° |
| 2026-04-21 11:37 | 49.49642 | -2.90801 | 3830 ft | 192 kts | 181° |
| 2026-04-21 11:37 | 49.48353 | -2.90816 | 3735 ft | 180 kts | 158° |
| 2026-04-21 11:37 | 49.47180 | -2.90214 | 3582 ft | 176 kts | 151° |
| 2026-04-21 11:37 | 49.46041 | -2.89540 | 3439 ft | 175 kts | 150° |
| 2026-04-21 11:38 | 49.44907 | -2.88882 | 3364 ft | 174 kts | 150° |
| 2026-04-21 11:38 | 49.43887 | -2.87988 | 3285 ft | 165 kts | 132° |
| 2026-04-21 11:38 | 49.43182 | -2.86659 | 3218 ft | 158 kts | 114° |
| 2026-04-21 11:38 | 49.42834 | -2.85082 | 3225 ft | 156 kts | 97° |
| 2026-04-21 11:39 | 49.42823 | -2.83409 | 3143 ft | 157 kts | 87° |
| 2026-04-21 11:39 | 49.42874 | -2.81723 | 2970 ft | 158 kts | 86° |
| 2026-04-21 11:39 | 49.42925 | -2.80041 | 2769 ft | 157 kts | 86° |
| 2026-04-21 11:39 | 49.42974 | -2.78384 | 2553 ft | 155 kts | 86° |
| 2026-04-21 11:40 | 49.43023 | -2.76740 | 2343 ft | 154 kts | 87° |
| 2026-04-21 11:40 | 49.43071 | -2.75106 | 2133 ft | 153 kts | 86° |
| 2026-04-21 11:40 | 49.43118 | -2.73472 | 1922 ft | 154 kts | 86° |
| 2026-04-21 11:40 | 49.43164 | -2.71879 | 1712 ft | 145 kts | 86° |
| 2026-04-21 11:41 | 49.43204 | -2.70458 | 1529 ft | 124 kts | 85° |
| 2026-04-21 11:41 | 49.43241 | -2.69187 | 1363 ft | 116 kts | 85° |
| 2026-04-21 11:41 | 49.43276 | -2.67959 | 1201 ft | 115 kts | 85° |
| 2026-04-21 11:41 | 49.43311 | -2.66729 | 1039 ft | 115 kts | 83° |
| 2026-04-21 11:42 | 49.43345 | -2.65503 | 860 ft | 114 kts | 88° |
| 2026-04-21 11:42 | 49.43380 | -2.64288 | 684 ft | 115 kts | 85° |
| 2026-04-21 11:42 | 49.43414 | -2.63065 | 560 ft | 113 kts | 85° |
| 2026-04-21 11:42 | 49.43453 | -2.61872 | 410 ft | 111 kts | 83° |
| 2026-04-21 11:43 | 49.43483 | -2.60735 | 325 ft | 91 kts | 87° |
| 2026-04-21 11:43 | 49.43497 | -2.60209 | 338 ft | 22 kts | 87° |
| 2026-04-21 11:43 | 49.43504 | -2.59949 | 344 ft | 28 kts | 87° |
| 2026-04-21 11:43 | 49.43514 | -2.59626 | 346 ft | 33 kts | 87° |
| 2026-04-21 11:44 | 49.43523 | -2.59297 | 349 ft | 24 kts | 87° |
| 2026-04-21 11:44 | 49.43468 | -2.59197 | 353 ft | 13 kts | 168° |
| 2026-04-21 11:44 | 49.43416 | -2.59194 | 345 ft | 2 kts | 180° |
| 2026-04-21 11:44 | 49.43390 | -2.59199 | 350 ft | 5 kts | 195° |
| 2026-04-21 11:45 | 49.43373 | -2.59250 | 345 ft | 6 kts | 267° |
| 2026-04-21 11:45 | 49.43370 | -2.59342 | 345 ft | 11 kts | 267° |
| 2026-04-21 11:45 | 49.43367 | -2.59465 | 351 ft | 11 kts | 268° |
| 2026-04-21 11:45 | 49.43365 | -2.59557 | 345 ft | 5 kts | 266° |
| 2026-04-21 11:46 | 49.43333 | -2.59568 | 348 ft | 6 kts | 174° |
| 2026-04-21 11:46 | 49.43292 | -2.59564 | 345 ft | 3 kts | 177° |
| 2026-04-21 11:46 | 49.43277 | -2.59563 | 351 ft | 0 kts | 176° |